East Coast - Cape St. Francis and south: Past 24 Hour Conditions

 

Natashquan Airport

07:00 PM EST 03 March 2015
Disclaimer

This table is a summary of hourly weather conditions for the past 24 hours.
Please note that these observations might not always be representative of weather conditions over their associated marine area.

Date / Time
(EST)
Wind(knots) Conditions Visibility(km) Pressure(kPa) Air tempC) Relative humidity(%) Dew pointC) Wind Chill
03 March 2015
19:00 NW 8 Clear 16 101.5 -19 51 -27 -28
18:00 NW 13 Clear 16 101.4 -18 50 -26 -29
17:00 WNW 13 Clear 16 101.3 -17 52 -25 -28
16:00 WNW 9 gust 16 Sunny 16 101.1 -16 50 -24 -25
15:00 WNW 12 gust 23 Sunny 16 101.0 -15 48 -24 -25
14:00 NW 20 gust 28 Sunny 11 100.9 -15 49 -24 -28
13:00 WNW 20 gust 27 Sunny 16 100.8 -16 51 -24 -28
12:00 WNW 15 gust 25 Sunny 16 100.7 -16 53 -23 -27
11:00 WNW 20 gust 26 Sunny 15 100.7 -16 54 -24 -29
10:00 WNW 16 gust 23 Sunny 16 100.7 -17 54 -24 -29
9:00 WNW 18 gust 24 Sunny 13 100.6 -18 58 -24 -30
8:00 WNW 19 gust 28 Sunny 16 100.6 -17 58 -24 -30
7:00 WNW 17 gust 25 Sunny 15 100.5 -17 63 -23 -29
6:00 NW 15 gust 25 Sunny 15 100.2 -16 67 -20 -27
5:00 NNW 18 gust 29 Light Snow 13 100.1 -13 69 -17 -24
4:00 NNW 17 gust 24 Clear 16 99.9 -10 72 -14 -20
3:00 NW 13 Clear 16 99.8 -10 78 -13 -19
2:00 NW 11 gust 16 Clear 16 99.7 -10 82 -13 -18
1:00 NW 12 Mainly Clear 16 99.6 -11 84 -13 -19
0:00 NNW 8 Clear 16 99.6 -11 87 -13 -18
02 March 2015
23:00 NW 9 Light Snow 16 99.6 -10 88 -11 -17
22:00 NW 10 Light Snow 16 99.6 -9 89 -11 -16
21:00 NNW 9 Light Snow 11 99.7 -8 87 -9 -14
20:00 NNW 11 Light Snow 5 99.8 -7 88 -8 -14
19:00 NNW 10 Light Snow 6 99.8 -6 89 -8 -13

Zoom-in to make a selection

Map of Atlantic - Newfoundland marine weather areas Southwestern Grand Banks - 44138 Banquereau - 44139 Tail of the Bank - 44140 Nickerson Bank - 44251 Northeast Burgeo Bank - 44255 Blanc-Sablon Airport Cap Whittle Chevery Natashquan Airport Heath Point Miscou Island Grand Étang Ingonish Beach North Mountain St.Paul Island J.A. Douglas McCurdy Sydney Airport Charlottetown Airport East Point North Cape Argentia Bonavista Burgeo Cape Race Corner Brook Daniel's Harbour Englee Ferolle Point La Scie Port aux Basques Rocky Harbour Sagona Island St. Anthony Airport St. John's Int'l Airport St. Lawrence Stephenville Airport Twillingate Winterland Wreckhouse Cartwright Airport Mary's Harbour Grates Cove Pool's Island Marticot Island Long Pond Îles de la Madeleine Airport
Legend:
buoy Buoy
land station Land Station

Atlantic - Newfoundland Area

Another Region

What we are doing

Date modified: